sensor_id;sensor_type;location;lat;lon;timestamp;P1;durP1;ratioP1;P2;durP2;ratioP2
25479;SDS011;13393;49.378;8.686;2023-06-26T00:02:23;5.38;;;4.88;;
25479;SDS011;13393;49.378;8.686;2023-06-26T00:04:50;4.90;;;4.40;;
25479;SDS011;13393;49.378;8.686;2023-06-26T00:07:18;5.10;;;4.60;;
25479;SDS011;13393;49.378;8.686;2023-06-26T00:09:45;5.22;;;4.82;;
25479;SDS011;13393;49.378;8.686;2023-06-26T00:12:11;6.03;;;5.43;;
25479;SDS011;13393;49.378;8.686;2023-06-26T00:14:39;5.80;;;5.30;;
25479;SDS011;13393;49.378;8.686;2023-06-26T00:17:06;5.72;;;5.10;;
25479;SDS011;13393;49.378;8.686;2023-06-26T00:19:33;6.07;;;5.45;;
25479;SDS011;13393;49.378;8.686;2023-06-26T00:21:59;6.22;;;5.38;;
25479;SDS011;13393;49.378;8.686;2023-06-26T00:24:26;6.00;;;5.30;;
25479;SDS011;13393;49.378;8.686;2023-06-26T00:26:52;6.28;;;5.45;;
25479;SDS011;13393;49.378;8.686;2023-06-26T00:29:19;6.25;;;5.65;;
25479;SDS011;13393;49.378;8.686;2023-06-26T00:31:47;5.78;;;5.25;;
25479;SDS011;13393;49.378;8.686;2023-06-26T00:34:15;6.05;;;5.45;;
25479;SDS011;13393;49.378;8.686;2023-06-26T00:36:41;6.60;;;5.88;;
25479;SDS011;13393;49.378;8.686;2023-06-26T00:39:08;7.78;;;5.90;;
25479;SDS011;13393;49.378;8.686;2023-06-26T00:41:35;6.57;;;5.70;;
25479;SDS011;13393;49.378;8.686;2023-06-26T00:44:02;8.52;;;5.90;;
25479;SDS011;13393;49.378;8.686;2023-06-26T00:46:28;6.15;;;5.55;;
25479;SDS011;13393;49.378;8.686;2023-06-26T00:48:56;6.45;;;5.85;;
25479;SDS011;13393;49.378;8.686;2023-06-26T00:51:25;6.15;;;5.55;;
25479;SDS011;13393;49.378;8.686;2023-06-26T00:53:52;6.15;;;5.55;;
25479;SDS011;13393;49.378;8.686;2023-06-26T00:56:18;6.47;;;5.88;;
25479;SDS011;13393;49.378;8.686;2023-06-26T00:58:45;6.35;;;5.63;;
25479;SDS011;13393;49.378;8.686;2023-06-26T01:01:12;5.95;;;5.40;;
25479;SDS011;13393;49.378;8.686;2023-06-26T01:03:40;6.85;;;6.07;;
25479;SDS011;13393;49.378;8.686;2023-06-26T01:06:08;8.52;;;5.65;;
25479;SDS011;13393;49.378;8.686;2023-06-26T01:08:36;6.97;;;5.50;;
25479;SDS011;13393;49.378;8.686;2023-06-26T01:11:03;7.72;;;6.18;;
25479;SDS011;13393;49.378;8.686;2023-06-26T01:13:29;7.03;;;5.82;;
25479;SDS011;13393;49.378;8.686;2023-06-26T01:15:58;7.15;;;6.45;;
25479;SDS011;13393;49.378;8.686;2023-06-26T01:18:25;7.00;;;6.30;;
25479;SDS011;13393;49.378;8.686;2023-06-26T01:20:52;7.50;;;6.70;;
25479;SDS011;13393;49.378;8.686;2023-06-26T01:23:22;6.57;;;5.97;;
25479;SDS011;13393;49.378;8.686;2023-06-26T01:25:56;6.70;;;5.57;;
25479;SDS011;13393;49.378;8.686;2023-06-26T01:28:27;6.78;;;6.07;;
25479;SDS011;13393;49.378;8.686;2023-06-26T01:30:54;6.78;;;6.00;;
25479;SDS011;13393;49.378;8.686;2023-06-26T01:33:21;7.47;;;6.47;;
25479;SDS011;13393;49.378;8.686;2023-06-26T01:35:47;7.57;;;6.00;;
25479;SDS011;13393;49.378;8.686;2023-06-26T01:38:15;6.78;;;6.10;;
25479;SDS011;13393;49.378;8.686;2023-06-26T01:40:42;6.70;;;5.60;;
25479;SDS011;13393;49.378;8.686;2023-06-26T01:43:11;7.07;;;6.05;;
25479;SDS011;13393;49.378;8.686;2023-06-26T01:45:43;6.93;;;6.22;;
25479;SDS011;13393;49.378;8.686;2023-06-26T01:48:10;7.10;;;6.38;;
25479;SDS011;13393;49.378;8.686;2023-06-26T01:50:37;7.78;;;6.35;;
25479;SDS011;13393;49.378;8.686;2023-06-26T01:53:07;8.93;;;7.43;;
25479;SDS011;13393;49.378;8.686;2023-06-26T01:55:38;8.20;;;6.68;;
25479;SDS011;13393;49.378;8.686;2023-06-26T01:58:06;8.13;;;6.72;;
25479;SDS011;13393;49.378;8.686;2023-06-26T02:00:33;8.25;;;6.90;;
25479;SDS011;13393;49.378;8.686;2023-06-26T02:03:01;7.25;;;6.55;;
25479;SDS011;13393;49.378;8.686;2023-06-26T02:05:28;7.63;;;6.72;;
25479;SDS011;13393;49.378;8.686;2023-06-26T02:07:55;8.10;;;6.85;;
25479;SDS011;13393;49.378;8.686;2023-06-26T02:10:22;7.57;;;6.82;;
25479;SDS011;13393;49.378;8.686;2023-06-26T02:12:48;7.10;;;6.40;;
25479;SDS011;13393;49.378;8.686;2023-06-26T02:15:15;7.05;;;6.30;;
25479;SDS011;13393;49.378;8.686;2023-06-26T02:17:41;8.07;;;7.18;;
25479;SDS011;13393;49.378;8.686;2023-06-26T02:20:09;7.55;;;6.75;;
25479;SDS011;13393;49.378;8.686;2023-06-26T02:22:36;7.13;;;6.43;;
25479;SDS011;13393;49.378;8.686;2023-06-26T02:25:02;7.93;;;7.13;;
25479;SDS011;13393;49.378;8.686;2023-06-26T02:27:29;8.65;;;7.05;;
25479;SDS011;13393;49.378;8.686;2023-06-26T02:29:55;6.97;;;6.38;;
25479;SDS011;13393;49.378;8.686;2023-06-26T02:32:22;8.30;;;6.38;;
25479;SDS011;13393;49.378;8.686;2023-06-26T02:34:48;7.38;;;6.65;;
25479;SDS011;13393;49.378;8.686;2023-06-26T02:37:18;8.73;;;6.65;;
25479;SDS011;13393;49.378;8.686;2023-06-26T02:39:44;7.68;;;6.57;;
25479;SDS011;13393;49.378;8.686;2023-06-26T02:42:11;7.82;;;6.75;;
25479;SDS011;13393;49.378;8.686;2023-06-26T02:44:37;8.23;;;7.07;;
25479;SDS011;13393;49.378;8.686;2023-06-26T02:47:04;8.98;;;6.55;;
25479;SDS011;13393;49.378;8.686;2023-06-26T02:49:30;8.63;;;6.93;;
25479;SDS011;13393;49.378;8.686;2023-06-26T02:51:57;8.10;;;6.72;;
25479;SDS011;13393;49.378;8.686;2023-06-26T02:54:24;7.78;;;7.03;;
25479;SDS011;13393;49.378;8.686;2023-06-26T02:56:51;7.72;;;6.47;;
25479;SDS011;13393;49.378;8.686;2023-06-26T02:59:17;7.78;;;7.03;;
25479;SDS011;13393;49.378;8.686;2023-06-26T03:01:44;7.88;;;6.85;;
25479;SDS011;13393;49.378;8.686;2023-06-26T03:04:10;8.90;;;7.03;;
25479;SDS011;13393;49.378;8.686;2023-06-26T03:06:36;7.90;;;7.10;;
25479;SDS011;13393;49.378;8.686;2023-06-26T03:09:03;8.23;;;6.80;;
25479;SDS011;13393;49.378;8.686;2023-06-26T03:11:31;9.55;;;7.00;;
25479;SDS011;13393;49.378;8.686;2023-06-26T03:13:57;7.90;;;7.10;;
25479;SDS011;13393;49.378;8.686;2023-06-26T03:16:24;7.72;;;6.50;;
25479;SDS011;13393;49.378;8.686;2023-06-26T03:18:50;7.70;;;6.90;;
25479;SDS011;13393;49.378;8.686;2023-06-26T03:21:17;7.50;;;6.80;;
25479;SDS011;13393;49.378;8.686;2023-06-26T03:23:43;8.20;;;7.18;;
25479;SDS011;13393;49.378;8.686;2023-06-26T03:26:09;7.95;;;7.07;;
25479;SDS011;13393;49.378;8.686;2023-06-26T03:28:37;7.78;;;6.78;;
25479;SDS011;13393;49.378;8.686;2023-06-26T03:31:04;7.50;;;6.72;;
25479;SDS011;13393;49.378;8.686;2023-06-26T03:33:30;8.15;;;7.35;;
25479;SDS011;13393;49.378;8.686;2023-06-26T03:35:57;10.45;;;7.15;;
25479;SDS011;13393;49.378;8.686;2023-06-26T03:38:24;7.63;;;6.82;;
25479;SDS011;13393;49.378;8.686;2023-06-26T03:40:51;8.45;;;6.88;;
25479;SDS011;13393;49.378;8.686;2023-06-26T03:43:17;8.20;;;7.15;;
25479;SDS011;13393;49.378;8.686;2023-06-26T03:45:45;7.82;;;7.03;;
25479;SDS011;13393;49.378;8.686;2023-06-26T03:48:12;7.57;;;6.80;;
25479;SDS011;13393;49.378;8.686;2023-06-26T03:50:39;7.82;;;6.22;;
25479;SDS011;13393;49.378;8.686;2023-06-26T03:53:06;7.32;;;6.53;;
25479;SDS011;13393;49.378;8.686;2023-06-26T03:55:32;6.40;;;5.78;;
25479;SDS011;13393;49.378;8.686;2023-06-26T03:57:59;7.13;;;6.43;;
25479;SDS011;13393;49.378;8.686;2023-06-26T04:00:25;8.50;;;6.18;;
25479;SDS011;13393;49.378;8.686;2023-06-26T04:02:55;6.90;;;6.03;;
25479;SDS011;13393;49.378;8.686;2023-06-26T04:05:22;6.68;;;5.97;;
25479;SDS011;13393;49.378;8.686;2023-06-26T04:07:49;7.53;;;5.93;;
25479;SDS011;13393;49.378;8.686;2023-06-26T04:10:16;6.50;;;5.88;;
25479;SDS011;13393;49.378;8.686;2023-06-26T04:12:43;7.13;;;5.88;;
25479;SDS011;13393;49.378;8.686;2023-06-26T04:15:09;7.07;;;6.00;;
25479;SDS011;13393;49.378;8.686;2023-06-26T04:17:36;10.70;;;6.05;;
25479;SDS011;13393;49.378;8.686;2023-06-26T04:20:06;9.65;;;6.38;;
25479;SDS011;13393;49.378;8.686;2023-06-26T04:22:33;6.63;;;5.93;;
25479;SDS011;13393;49.378;8.686;2023-06-26T04:25:00;9.57;;;5.90;;
25479;SDS011;13393;49.378;8.686;2023-06-26T04:27:27;6.68;;;6.03;;
25479;SDS011;13393;49.378;8.686;2023-06-26T04:29:55;8.43;;;6.93;;
25479;SDS011;13393;49.378;8.686;2023-06-26T04:32:21;9.00;;;6.47;;
25479;SDS011;13393;49.378;8.686;2023-06-26T04:34:48;7.68;;;6.57;;
25479;SDS011;13393;49.378;8.686;2023-06-26T04:37:16;8.82;;;6.90;;
25479;SDS011;13393;49.378;8.686;2023-06-26T04:39:42;6.88;;;6.18;;
25479;SDS011;13393;49.378;8.686;2023-06-26T04:42:09;8.05;;;6.90;;
25479;SDS011;13393;49.378;8.686;2023-06-26T04:44:37;10.63;;;7.28;;
25479;SDS011;13393;49.378;8.686;2023-06-26T04:47:03;7.57;;;6.57;;
25479;SDS011;13393;49.378;8.686;2023-06-26T04:49:30;8.32;;;7.47;;
25479;SDS011;13393;49.378;8.686;2023-06-26T04:51:57;8.05;;;7.13;;
25479;SDS011;13393;49.378;8.686;2023-06-26T04:54:26;8.23;;;7.28;;
25479;SDS011;13393;49.378;8.686;2023-06-26T04:56:54;8.32;;;7.38;;
25479;SDS011;13393;49.378;8.686;2023-06-26T04:59:20;7.68;;;6.88;;
25479;SDS011;13393;49.378;8.686;2023-06-26T05:01:47;8.23;;;7.43;;
25479;SDS011;13393;49.378;8.686;2023-06-26T05:04:14;10.43;;;7.45;;
25479;SDS011;13393;49.378;8.686;2023-06-26T05:06:41;8.88;;;7.20;;
25479;SDS011;13393;49.378;8.686;2023-06-26T05:09:07;8.98;;;8.07;;
25479;SDS011;13393;49.378;8.686;2023-06-26T05:11:37;11.15;;;8.27;;
25479;SDS011;13393;49.378;8.686;2023-06-26T05:14:04;10.45;;;7.78;;
25479;SDS011;13393;49.378;8.686;2023-06-26T05:16:32;9.05;;;7.55;;
25479;SDS011;13393;49.378;8.686;2023-06-26T05:18:58;8.25;;;7.30;;
25479;SDS011;13393;49.378;8.686;2023-06-26T05:21:25;9.77;;;7.93;;
25479;SDS011;13393;49.378;8.686;2023-06-26T05:23:51;8.80;;;7.22;;
25479;SDS011;13393;49.378;8.686;2023-06-26T05:26:19;8.93;;;7.38;;
25479;SDS011;13393;49.378;8.686;2023-06-26T05:28:48;9.73;;;7.78;;
25479;SDS011;13393;49.378;8.686;2023-06-26T05:31:15;9.25;;;7.70;;
25479;SDS011;13393;49.378;8.686;2023-06-26T05:33:43;9.70;;;7.43;;
25479;SDS011;13393;49.378;8.686;2023-06-26T05:36:10;8.18;;;7.38;;
25479;SDS011;13393;49.378;8.686;2023-06-26T05:38:39;9.10;;;7.25;;
25479;SDS011;13393;49.378;8.686;2023-06-26T05:41:05;9.38;;;6.88;;
25479;SDS011;13393;49.378;8.686;2023-06-26T05:43:32;8.07;;;6.80;;
25479;SDS011;13393;49.378;8.686;2023-06-26T05:45:59;9.05;;;6.97;;
25479;SDS011;13393;49.378;8.686;2023-06-26T05:48:26;7.50;;;6.80;;
25479;SDS011;13393;49.378;8.686;2023-06-26T05:50:53;8.55;;;6.55;;
25479;SDS011;13393;49.378;8.686;2023-06-26T05:53:20;8.02;;;7.22;;
25479;SDS011;13393;49.378;8.686;2023-06-26T05:55:47;7.78;;;6.93;;
25479;SDS011;13393;49.378;8.686;2023-06-26T05:58:14;8.88;;;7.13;;
25479;SDS011;13393;49.378;8.686;2023-06-26T06:00:40;6.90;;;6.20;;
25479;SDS011;13393;49.378;8.686;2023-06-26T06:03:09;9.90;;;6.95;;
25479;SDS011;13393;49.378;8.686;2023-06-26T06:05:35;7.32;;;6.63;;
25479;SDS011;13393;49.378;8.686;2023-06-26T06:08:04;7.57;;;6.78;;
25479;SDS011;13393;49.378;8.686;2023-06-26T06:10:30;6.95;;;6.25;;
25479;SDS011;13393;49.378;8.686;2023-06-26T06:12:57;8.95;;;6.03;;
25479;SDS011;13393;49.378;8.686;2023-06-26T06:15:24;7.18;;;6.47;;
25479;SDS011;13393;49.378;8.686;2023-06-26T06:17:50;7.30;;;6.63;;
25479;SDS011;13393;49.378;8.686;2023-06-26T06:20:18;9.07;;;7.40;;
25479;SDS011;13393;49.378;8.686;2023-06-26T06:22:46;8.18;;;6.40;;
25479;SDS011;13393;49.378;8.686;2023-06-26T06:25:13;11.00;;;6.68;;
25479;SDS011;13393;49.378;8.686;2023-06-26T06:27:39;7.55;;;6.45;;
25479;SDS011;13393;49.378;8.686;2023-06-26T06:30:06;9.15;;;6.47;;
25479;SDS011;13393;49.378;8.686;2023-06-26T06:32:33;7.18;;;6.35;;
25479;SDS011;13393;49.378;8.686;2023-06-26T06:34:59;8.57;;;6.78;;
25479;SDS011;13393;49.378;8.686;2023-06-26T06:37:35;7.35;;;6.65;;
25479;SDS011;13393;49.378;8.686;2023-06-26T06:40:01;6.85;;;6.15;;
25479;SDS011;13393;49.378;8.686;2023-06-26T06:42:28;7.25;;;6.22;;
25479;SDS011;13393;49.378;8.686;2023-06-26T06:44:55;9.02;;;6.65;;
25479;SDS011;13393;49.378;8.686;2023-06-26T06:47:21;7.60;;;6.50;;
25479;SDS011;13393;49.378;8.686;2023-06-26T06:49:48;7.28;;;6.57;;
25479;SDS011;13393;49.378;8.686;2023-06-26T06:52:14;8.18;;;6.20;;
25479;SDS011;13393;49.378;8.686;2023-06-26T06:54:54;7.90;;;6.50;;
25479;SDS011;13393;49.378;8.686;2023-06-26T06:57:23;7.15;;;6.13;;
25479;SDS011;13393;49.378;8.686;2023-06-26T06:59:50;8.20;;;7.25;;
25479;SDS011;13393;49.378;8.686;2023-06-26T07:02:17;10.27;;;6.88;;
25479;SDS011;13393;49.378;8.686;2023-06-26T07:04:43;7.75;;;6.95;;
25479;SDS011;13393;49.378;8.686;2023-06-26T07:07:09;8.05;;;6.80;;
25479;SDS011;13393;49.378;8.686;2023-06-26T07:09:36;9.30;;;6.90;;
25479;SDS011;13393;49.378;8.686;2023-06-26T07:12:04;6.82;;;6.10;;
25479;SDS011;13393;49.378;8.686;2023-06-26T07:14:31;7.20;;;6.32;;
25479;SDS011;13393;49.378;8.686;2023-06-26T07:16:57;6.97;;;6.32;;
25479;SDS011;13393;49.378;8.686;2023-06-26T07:19:24;7.22;;;6.47;;
25479;SDS011;13393;49.378;8.686;2023-06-26T07:21:50;9.75;;;6.75;;
25479;SDS011;13393;49.378;8.686;2023-06-26T07:24:17;9.48;;;6.57;;
25479;SDS011;13393;49.378;8.686;2023-06-26T07:26:43;9.30;;;6.40;;
25479;SDS011;13393;49.378;8.686;2023-06-26T07:29:11;8.50;;;6.18;;
25479;SDS011;13393;49.378;8.686;2023-06-26T07:31:37;9.38;;;6.63;;
25479;SDS011;13393;49.378;8.686;2023-06-26T07:34:04;8.45;;;7.07;;
25479;SDS011;13393;49.378;8.686;2023-06-26T07:36:30;8.25;;;6.30;;
25479;SDS011;13393;49.378;8.686;2023-06-26T07:38:57;8.70;;;7.10;;
25479;SDS011;13393;49.378;8.686;2023-06-26T07:41:23;7.47;;;6.80;;
25479;SDS011;13393;49.378;8.686;2023-06-26T07:43:49;9.43;;;6.75;;
25479;SDS011;13393;49.378;8.686;2023-06-26T07:46:17;7.05;;;6.35;;
25479;SDS011;13393;49.378;8.686;2023-06-26T07:48:44;9.40;;;6.97;;
25479;SDS011;13393;49.378;8.686;2023-06-26T07:51:10;8.40;;;6.85;;
25479;SDS011;13393;49.378;8.686;2023-06-26T07:53:36;7.97;;;6.57;;
25479;SDS011;13393;49.378;8.686;2023-06-26T07:56:04;8.13;;;6.47;;
25479;SDS011;13393;49.378;8.686;2023-06-26T07:58:30;7.30;;;6.60;;
25479;SDS011;13393;49.378;8.686;2023-06-26T08:00:57;8.73;;;6.57;;
25479;SDS011;13393;49.378;8.686;2023-06-26T08:03:24;7.32;;;5.95;;
25479;SDS011;13393;49.378;8.686;2023-06-26T08:05:51;10.85;;;6.55;;
25479;SDS011;13393;49.378;8.686;2023-06-26T08:08:17;7.22;;;6.47;;
25479;SDS011;13393;49.378;8.686;2023-06-26T08:10:44;8.30;;;6.75;;
25479;SDS011;13393;49.378;8.686;2023-06-26T08:13:10;6.20;;;5.35;;
25479;SDS011;13393;49.378;8.686;2023-06-26T08:15:37;10.48;;;6.10;;
25479;SDS011;13393;49.378;8.686;2023-06-26T08:18:04;6.88;;;6.05;;
25479;SDS011;13393;49.378;8.686;2023-06-26T08:20:32;7.22;;;6.38;;
25479;SDS011;13393;49.378;8.686;2023-06-26T08:23:00;6.90;;;5.72;;
25479;SDS011;13393;49.378;8.686;2023-06-26T08:25:27;7.30;;;5.57;;
25479;SDS011;13393;49.378;8.686;2023-06-26T08:27:53;8.63;;;6.28;;
25479;SDS011;13393;49.378;8.686;2023-06-26T08:30:20;6.55;;;5.95;;
25479;SDS011;13393;49.378;8.686;2023-06-26T08:32:47;5.72;;;5.22;;
25479;SDS011;13393;49.378;8.686;2023-06-26T08:35:13;6.25;;;5.70;;
25479;SDS011;13393;49.378;8.686;2023-06-26T08:37:42;6.50;;;5.95;;
25479;SDS011;13393;49.378;8.686;2023-06-26T08:40:08;7.22;;;5.95;;
25479;SDS011;13393;49.378;8.686;2023-06-26T08:42:35;6.20;;;5.70;;
25479;SDS011;13393;49.378;8.686;2023-06-26T08:45:01;7.40;;;5.47;;
25479;SDS011;13393;49.378;8.686;2023-06-26T08:47:29;7.15;;;6.00;;
25479;SDS011;13393;49.378;8.686;2023-06-26T08:49:58;7.55;;;5.68;;
25479;SDS011;13393;49.378;8.686;2023-06-26T08:52:28;6.88;;;6.10;;
25479;SDS011;13393;49.378;8.686;2023-06-26T08:54:58;6.45;;;5.85;;
25479;SDS011;13393;49.378;8.686;2023-06-26T08:57:25;6.80;;;5.90;;
25479;SDS011;13393;49.378;8.686;2023-06-26T08:59:52;8.18;;;6.00;;
25479;SDS011;13393;49.378;8.686;2023-06-26T09:02:19;6.57;;;5.97;;
25479;SDS011;13393;49.378;8.686;2023-06-26T09:04:46;6.45;;;5.75;;
25479;SDS011;13393;49.378;8.686;2023-06-26T09:07:13;6.85;;;5.47;;
25479;SDS011;13393;49.378;8.686;2023-06-26T09:09:39;7.25;;;5.45;;
25479;SDS011;13393;49.378;8.686;2023-06-26T09:12:07;6.55;;;5.40;;
25479;SDS011;13393;49.378;8.686;2023-06-26T09:14:34;10.95;;;5.93;;
25479;SDS011;13393;49.378;8.686;2023-06-26T09:17:01;6.03;;;5.43;;
25479;SDS011;13393;49.378;8.686;2023-06-26T09:19:27;6.05;;;5.55;;
25479;SDS011;13393;49.378;8.686;2023-06-26T09:21:54;6.60;;;6.10;;
25479;SDS011;13393;49.378;8.686;2023-06-26T09:24:21;8.57;;;5.95;;
25479;SDS011;13393;49.378;8.686;2023-06-26T09:26:48;8.52;;;5.90;;
25479;SDS011;13393;49.378;8.686;2023-06-26T09:29:17;6.63;;;5.50;;
25479;SDS011;13393;49.378;8.686;2023-06-26T09:31:43;6.07;;;5.47;;
25479;SDS011;13393;49.378;8.686;2023-06-26T09:34:10;6.30;;;5.60;;
25479;SDS011;13393;49.378;8.686;2023-06-26T09:36:36;6.80;;;6.10;;
25479;SDS011;13393;49.378;8.686;2023-06-26T09:39:03;7.68;;;6.15;;
25479;SDS011;13393;49.378;8.686;2023-06-26T09:41:33;6.55;;;5.90;;
25479;SDS011;13393;49.378;8.686;2023-06-26T09:44:00;6.20;;;5.70;;
25479;SDS011;13393;49.378;8.686;2023-06-26T09:46:29;8.38;;;5.63;;
25479;SDS011;13393;49.378;8.686;2023-06-26T09:49:00;11.15;;;6.57;;
25479;SDS011;13393;49.378;8.686;2023-06-26T09:51:27;8.23;;;5.50;;
25479;SDS011;13393;49.378;8.686;2023-06-26T09:53:55;6.20;;;5.38;;
25479;SDS011;13393;49.378;8.686;2023-06-26T09:56:22;6.28;;;5.68;;
25479;SDS011;13393;49.378;8.686;2023-06-26T09:58:48;5.70;;;5.10;;
25479;SDS011;13393;49.378;8.686;2023-06-26T10:01:15;6.32;;;5.72;;
25479;SDS011;13393;49.378;8.686;2023-06-26T10:03:43;8.73;;;5.55;;
25479;SDS011;13393;49.378;8.686;2023-06-26T10:06:10;5.78;;;5.28;;
25479;SDS011;13393;49.378;8.686;2023-06-26T10:08:38;5.50;;;4.95;;
25479;SDS011;13393;49.378;8.686;2023-06-26T10:11:05;8.55;;;5.43;;
25479;SDS011;13393;49.378;8.686;2023-06-26T10:13:34;6.47;;;5.30;;
25479;SDS011;13393;49.378;8.686;2023-06-26T10:16:01;6.78;;;5.45;;
25479;SDS011;13393;49.378;8.686;2023-06-26T10:18:27;5.65;;;5.05;;
25479;SDS011;13393;49.378;8.686;2023-06-26T10:20:58;6.10;;;5.38;;
25479;SDS011;13393;49.378;8.686;2023-06-26T10:23:26;5.75;;;5.25;;
25479;SDS011;13393;49.378;8.686;2023-06-26T10:25:54;9.02;;;5.80;;
25479;SDS011;13393;49.378;8.686;2023-06-26T10:28:22;8.00;;;6.28;;
25479;SDS011;13393;49.378;8.686;2023-06-26T10:30:50;5.90;;;5.10;;
25479;SDS011;13393;49.378;8.686;2023-06-26T10:33:17;7.00;;;5.43;;
25479;SDS011;13393;49.378;8.686;2023-06-26T10:35:44;6.80;;;5.53;;
25479;SDS011;13393;49.378;8.686;2023-06-26T10:38:12;5.90;;;5.30;;
25479;SDS011;13393;49.378;8.686;2023-06-26T10:40:42;6.88;;;5.10;;
25479;SDS011;13393;49.378;8.686;2023-06-26T10:43:10;8.10;;;5.45;;
25479;SDS011;13393;49.378;8.686;2023-06-26T10:45:36;7.03;;;5.25;;
25479;SDS011;13393;49.378;8.686;2023-06-26T10:48:03;6.10;;;5.03;;
25479;SDS011;13393;49.378;8.686;2023-06-26T10:50:30;5.93;;;5.32;;
25479;SDS011;13393;49.378;8.686;2023-06-26T10:53:09;9.70;;;5.50;;
25479;SDS011;13393;49.378;8.686;2023-06-26T10:55:42;6.68;;;5.50;;
25479;SDS011;13393;49.378;8.686;2023-06-26T11:03:36;10.13;;;5.43;;
25479;SDS011;13393;49.378;8.686;2023-06-26T11:06:09;8.95;;;5.50;;
25479;SDS011;13393;49.378;8.686;2023-06-26T11:08:44;7.35;;;6.00;;
25479;SDS011;13393;49.378;8.686;2023-06-26T11:11:13;7.85;;;6.00;;
25479;SDS011;13393;49.378;8.686;2023-06-26T11:13:39;7.70;;;5.93;;
25479;SDS011;13393;49.378;8.686;2023-06-26T11:16:06;6.70;;;5.72;;
25479;SDS011;13393;49.378;8.686;2023-06-26T11:18:33;7.15;;;6.18;;
25479;SDS011;13393;49.378;8.686;2023-06-26T11:21:06;7.65;;;5.47;;
25479;SDS011;13393;49.378;8.686;2023-06-26T11:23:32;6.50;;;5.90;;
25479;SDS011;13393;49.378;8.686;2023-06-26T11:26:13;6.25;;;5.30;;
25479;SDS011;13393;49.378;8.686;2023-06-26T11:28:45;7.22;;;5.78;;
25479;SDS011;13393;49.378;8.686;2023-06-26T11:31:23;6.68;;;5.95;;
25479;SDS011;13393;49.378;8.686;2023-06-26T11:33:49;7.05;;;6.40;;
25479;SDS011;13393;49.378;8.686;2023-06-26T11:36:16;7.13;;;6.28;;
25479;SDS011;13393;49.378;8.686;2023-06-26T11:38:42;9.70;;;6.18;;
25479;SDS011;13393;49.378;8.686;2023-06-26T11:41:09;10.05;;;6.22;;
25479;SDS011;13393;49.378;8.686;2023-06-26T11:43:37;7.88;;;6.13;;
25479;SDS011;13393;49.378;8.686;2023-06-26T11:46:05;8.10;;;5.70;;
25479;SDS011;13393;49.378;8.686;2023-06-26T11:48:32;9.00;;;6.20;;
25479;SDS011;13393;49.378;8.686;2023-06-26T11:50:58;6.88;;;5.95;;
25479;SDS011;13393;49.378;8.686;2023-06-26T11:53:25;5.95;;;5.35;;
25479;SDS011;13393;49.378;8.686;2023-06-26T11:55:51;6.18;;;5.57;;
25479;SDS011;13393;49.378;8.686;2023-06-26T11:58:17;6.60;;;5.78;;
25479;SDS011;13393;49.378;8.686;2023-06-26T12:00:47;7.47;;;5.60;;
25479;SDS011;13393;49.378;8.686;2023-06-26T12:03:13;6.10;;;5.50;;
25479;SDS011;13393;49.378;8.686;2023-06-26T12:05:40;12.25;;;6.28;;
25479;SDS011;13393;49.378;8.686;2023-06-26T12:08:10;6.63;;;5.50;;
25479;SDS011;13393;49.378;8.686;2023-06-26T12:10:37;8.18;;;6.00;;
25479;SDS011;13393;49.378;8.686;2023-06-26T12:13:03;7.68;;;6.05;;
25479;SDS011;13393;49.378;8.686;2023-06-26T12:15:30;6.18;;;5.57;;
25479;SDS011;13393;49.378;8.686;2023-06-26T12:17:57;7.07;;;6.18;;
25479;SDS011;13393;49.378;8.686;2023-06-26T12:20:24;5.35;;;4.85;;
25479;SDS011;13393;49.378;8.686;2023-06-26T12:22:51;6.65;;;6.00;;
25479;SDS011;13393;49.378;8.686;2023-06-26T12:25:22;6.80;;;5.78;;
25479;SDS011;13393;49.378;8.686;2023-06-26T12:27:51;5.38;;;4.93;;
25479;SDS011;13393;49.378;8.686;2023-06-26T12:30:18;6.95;;;5.43;;
25479;SDS011;13393;49.378;8.686;2023-06-26T12:32:44;10.20;;;5.32;;
25479;SDS011;13393;49.378;8.686;2023-06-26T12:35:13;6.80;;;5.05;;
25479;SDS011;13393;49.378;8.686;2023-06-26T12:37:41;6.88;;;4.40;;
25479;SDS011;13393;49.378;8.686;2023-06-26T12:40:19;4.85;;;4.32;;
25479;SDS011;13393;49.378;8.686;2023-06-26T12:42:48;7.65;;;4.35;;
25479;SDS011;13393;49.378;8.686;2023-06-26T12:45:14;6.60;;;4.65;;
25479;SDS011;13393;49.378;8.686;2023-06-26T12:47:42;8.48;;;4.93;;
25479;SDS011;13393;49.378;8.686;2023-06-26T12:50:08;5.13;;;4.07;;
25479;SDS011;13393;49.378;8.686;2023-06-26T12:52:36;9.07;;;4.00;;
25479;SDS011;13393;49.378;8.686;2023-06-26T12:55:03;5.78;;;3.80;;
25479;SDS011;13393;49.378;8.686;2023-06-26T12:57:31;4.68;;;4.20;;
25479;SDS011;13393;49.378;8.686;2023-06-26T12:59:57;5.72;;;3.88;;
25479;SDS011;13393;49.378;8.686;2023-06-26T13:02:24;4.10;;;3.70;;
25479;SDS011;13393;49.378;8.686;2023-06-26T13:04:51;6.28;;;4.47;;
25479;SDS011;13393;49.378;8.686;2023-06-26T13:07:17;8.02;;;4.68;;
25479;SDS011;13393;49.378;8.686;2023-06-26T13:09:45;6.32;;;4.68;;
25479;SDS011;13393;49.378;8.686;2023-06-26T13:12:13;4.97;;;4.00;;
25479;SDS011;13393;49.378;8.686;2023-06-26T13:14:40;4.15;;;3.78;;
25479;SDS011;13393;49.378;8.686;2023-06-26T13:17:06;4.45;;;3.70;;
25479;SDS011;13393;49.378;8.686;2023-06-26T13:19:33;8.52;;;4.65;;
25479;SDS011;13393;49.378;8.686;2023-06-26T13:21:59;6.53;;;3.50;;
25479;SDS011;13393;49.378;8.686;2023-06-26T13:24:26;4.57;;;3.80;;
25479;SDS011;13393;49.378;8.686;2023-06-26T13:26:54;4.68;;;3.58;;
25479;SDS011;13393;49.378;8.686;2023-06-26T13:29:21;4.28;;;3.55;;
25479;SDS011;13393;49.378;8.686;2023-06-26T13:31:47;5.47;;;4.32;;
25479;SDS011;13393;49.378;8.686;2023-06-26T13:34:20;5.25;;;4.25;;
25479;SDS011;13393;49.378;8.686;2023-06-26T13:36:48;4.78;;;4.35;;
25479;SDS011;13393;49.378;8.686;2023-06-26T13:39:14;8.88;;;4.10;;
25479;SDS011;13393;49.378;8.686;2023-06-26T13:41:41;5.13;;;4.60;;
25479;SDS011;13393;49.378;8.686;2023-06-26T13:44:09;7.72;;;5.68;;
25479;SDS011;13393;49.378;8.686;2023-06-26T13:46:35;10.65;;;5.65;;
25479;SDS011;13393;49.378;8.686;2023-06-26T13:49:02;6.60;;;5.90;;
25479;SDS011;13393;49.378;8.686;2023-06-26T13:51:28;9.52;;;6.35;;
25479;SDS011;13393;49.378;8.686;2023-06-26T13:53:55;8.52;;;6.15;;
25479;SDS011;13393;49.378;8.686;2023-06-26T13:56:25;7.82;;;7.05;;
25479;SDS011;13393;49.378;8.686;2023-06-26T13:58:51;7.35;;;6.65;;
25479;SDS011;13393;49.378;8.686;2023-06-26T14:01:19;7.18;;;6.45;;
25479;SDS011;13393;49.378;8.686;2023-06-26T14:03:46;11.32;;;6.90;;
25479;SDS011;13393;49.378;8.686;2023-06-26T14:06:12;9.93;;;7.18;;
25479;SDS011;13393;49.378;8.686;2023-06-26T14:08:39;8.43;;;6.88;;
25479;SDS011;13393;49.378;8.686;2023-06-26T14:11:07;8.02;;;6.97;;
25479;SDS011;13393;49.378;8.686;2023-06-26T14:13:34;9.32;;;5.90;;
25479;SDS011;13393;49.378;8.686;2023-06-26T14:16:01;8.77;;;6.00;;
25479;SDS011;13393;49.378;8.686;2023-06-26T14:18:29;7.85;;;5.68;;
25479;SDS011;13393;49.378;8.686;2023-06-26T14:20:55;7.05;;;5.38;;
25479;SDS011;13393;49.378;8.686;2023-06-26T14:23:22;6.50;;;5.70;;
25479;SDS011;13393;49.378;8.686;2023-06-26T14:25:49;7.97;;;5.40;;
25479;SDS011;13393;49.378;8.686;2023-06-26T14:28:15;6.45;;;5.15;;
25479;SDS011;13393;49.378;8.686;2023-06-26T14:30:41;5.13;;;4.20;;
25479;SDS011;13393;49.378;8.686;2023-06-26T14:33:08;5.65;;;4.45;;
25479;SDS011;13393;49.378;8.686;2023-06-26T14:35:36;4.82;;;3.20;;
25479;SDS011;13393;49.378;8.686;2023-06-26T14:38:02;5.63;;;3.70;;
25479;SDS011;13393;49.378;8.686;2023-06-26T14:40:29;4.20;;;3.70;;
25479;SDS011;13393;49.378;8.686;2023-06-26T14:42:56;5.80;;;3.28;;
25479;SDS011;13393;49.378;8.686;2023-06-26T14:45:22;6.47;;;2.97;;
25479;SDS011;13393;49.378;8.686;2023-06-26T14:47:49;5.70;;;2.70;;
25479;SDS011;13393;49.378;8.686;2023-06-26T14:50:15;3.03;;;2.35;;
25479;SDS011;13393;49.378;8.686;2023-06-26T14:52:43;3.72;;;2.63;;
25479;SDS011;13393;49.378;8.686;2023-06-26T14:55:09;3.78;;;2.45;;